createdAt,value
2019-02-08T00:04:06.420Z,2.13
2019-02-08T00:09:13.962Z,2.28
2019-02-08T00:14:19.619Z,2.54
2019-02-08T00:19:25.308Z,2.54
2019-02-08T00:24:30.854Z,2.43
2019-02-08T00:29:37.295Z,2.39
2019-02-08T00:34:42.962Z,2.19
2019-02-08T00:39:48.765Z,2.48
2019-02-08T00:44:54.560Z,2.55
2019-02-08T00:50:00.193Z,2.53
2019-02-08T00:55:06.609Z,2.48
2019-02-08T01:00:14.212Z,2.80
2019-02-08T01:05:21.066Z,2.84
2019-02-08T01:10:28.735Z,3.15
2019-02-08T01:15:35.606Z,3.09
2019-02-08T01:20:41.089Z,3.12
2019-02-08T01:25:46.891Z,3.22
2019-02-08T01:30:52.472Z,3.22
2019-02-08T01:35:58.474Z,3.34
2019-02-08T01:41:03.901Z,3.35
2019-02-08T01:46:11.927Z,3.52
2019-02-08T01:51:17.497Z,3.45
2019-02-08T01:56:23.058Z,3.37
2019-02-08T02:01:28.783Z,3.71
2019-02-08T02:06:34.595Z,3.91
2019-02-08T02:11:40.152Z,3.56
2019-02-08T02:16:45.837Z,3.67
2019-02-08T02:21:51.422Z,3.41
2019-02-08T02:26:57.395Z,3.41
2019-02-08T02:32:05.582Z,3.51
2019-02-08T02:37:11.655Z,3.53
2019-02-08T02:42:17.253Z,3.53
2019-02-08T02:47:23.413Z,3.40
2019-02-08T02:52:28.988Z,3.57
2019-02-08T02:57:34.601Z,3.36
2019-02-08T03:02:40.339Z,3.62
2019-02-08T03:07:46.179Z,3.58
2019-02-08T03:12:51.717Z,3.57
2019-02-08T03:17:57.690Z,3.61
2019-02-08T03:23:03.360Z,3.61
2019-02-08T03:28:10.240Z,3.79
2019-02-08T03:33:15.858Z,3.62
2019-02-08T03:38:21.911Z,3.90
2019-02-08T03:43:27.655Z,3.94
2019-02-08T03:48:34.402Z,3.84
2019-02-08T03:53:41.980Z,3.71
2019-02-08T03:58:47.557Z,3.87
2019-02-08T04:03:53.208Z,3.89
2019-02-08T04:08:58.992Z,3.74
2019-02-08T04:14:05.070Z,3.72
2019-02-08T04:19:10.639Z,3.65
2019-02-08T04:24:17.696Z,3.79
2019-02-08T04:29:23.441Z,3.73
2019-02-08T04:34:31.302Z,3.77
2019-02-08T04:39:36.917Z,3.71
2019-02-08T04:44:42.483Z,3.72
2019-02-08T04:49:48.070Z,3.73
2019-02-08T04:54:53.645Z,3.53
2019-02-08T04:59:59.263Z,3.72
2019-02-08T05:05:06.111Z,3.84
2019-02-08T05:10:12.438Z,3.63
2019-02-08T05:15:18.602Z,3.75
2019-02-08T05:20:27.245Z,3.49
2019-02-08T05:25:32.891Z,3.43
2019-02-08T05:30:38.923Z,3.44
2019-02-08T05:35:44.463Z,3.48
2019-02-08T05:40:50.352Z,3.48
2019-02-08T05:45:56.904Z,3.52
2019-02-08T05:51:02.601Z,3.39
2019-02-08T05:56:08.184Z,3.68
2019-02-08T06:01:14.037Z,3.46
2019-02-08T06:06:19.689Z,3.55
2019-02-08T06:11:25.751Z,3.42
2019-02-08T06:16:31.289Z,3.57
2019-02-08T06:21:37.149Z,3.17
2019-02-08T06:26:42.654Z,3.25
2019-02-08T06:31:48.390Z,3.28
2019-02-08T06:36:53.965Z,3.21
2019-02-08T06:42:01.728Z,2.87
2019-02-08T06:47:08.854Z,3.17
2019-02-08T06:52:14.375Z,3.45
2019-02-08T06:57:41.760Z,3.65
2019-02-08T07:03:06.227Z,3.77
2019-02-08T07:08:33.212Z,3.31
2019-02-08T07:14:03.661Z,3.79
2019-02-08T07:19:31.608Z,3.56
2019-02-08T07:24:58.708Z,3.68
2019-02-08T07:30:23.592Z,3.81
2019-02-08T07:35:55.900Z,3.71
2019-02-08T07:41:24.606Z,3.88
2019-02-08T07:46:59.210Z,3.97
2019-02-08T07:52:31.497Z,3.91
2019-02-08T07:57:47.106Z,4.64
2019-02-08T08:03:14.757Z,4.64
2019-02-08T08:08:42.646Z,5.23
2019-02-08T08:14:10.163Z,4.96
2019-02-08T08:19:35.183Z,5.06
2019-02-08T08:25:01.320Z,5.50
2019-02-08T08:30:22.700Z,5.50
2019-02-08T08:36:09.253Z,6.10
2019-02-08T08:41:51.401Z,6.25
2019-02-08T08:47:51.786Z,6.77
2019-02-08T08:53:24.656Z,6.61
2019-02-08T08:59:17.923Z,6.65
2019-02-08T09:05:00.028Z,6.81
2019-02-08T09:10:53.292Z,6.68
2019-02-08T09:16:29.805Z,7.14
2019-02-08T09:22:11.633Z,7.17
2019-02-08T09:27:59.908Z,7.24
2019-02-08T09:33:37.971Z,7.19
2019-02-08T09:39:30.717Z,6.98
2019-02-08T09:45:18.077Z,7.19
2019-02-08T09:51:02.102Z,7.24
2019-02-08T09:56:50.921Z,6.92
2019-02-08T10:02:43.236Z,7.40
2019-02-08T10:08:18.450Z,7.58
2019-02-08T10:14:01.507Z,7.58
2019-02-08T10:19:38.360Z,7.50
2019-02-08T10:25:52.014Z,7.37
2019-02-08T10:31:26.291Z,8.00
2019-02-08T10:37:22.266Z,7.78
2019-02-08T10:43:17.340Z,7.78
2019-02-08T10:49:18.072Z,7.29
2019-02-08T10:54:59.262Z,7.76
2019-02-08T11:00:32.093Z,7.98
2019-02-08T11:06:32.838Z,8.34
2019-02-08T11:12:13.944Z,7.50
2019-02-08T11:18:09.624Z,8.15
2019-02-08T11:23:15.410Z,7.93
2019-02-08T11:28:20.935Z,7.93
2019-02-08T11:33:26.517Z,8.43
2019-02-08T11:38:32.128Z,8.27
2019-02-08T11:43:39.335Z,8.89
2019-02-08T11:48:45.227Z,8.47
2019-02-08T11:53:51.800Z,8.65
2019-02-08T11:58:57.460Z,8.24
2019-02-08T12:04:03.285Z,8.37
2019-02-08T12:09:14.464Z,8.92
2019-02-08T12:14:20.748Z,8.53
2019-02-08T12:19:26.453Z,8.31
2019-02-08T12:24:32.115Z,8.92
2019-02-08T12:29:37.662Z,8.58
2019-02-08T12:34:43.327Z,8.51
2019-02-08T12:39:49.243Z,9.08
2019-02-08T12:44:54.814Z,8.59
2019-02-08T12:50:00.781Z,8.95
2019-02-08T12:55:07.768Z,8.12
2019-02-08T13:00:16.312Z,8.44
2019-02-08T13:05:22.642Z,8.44
2019-02-08T13:10:28.913Z,8.34
2019-02-08T13:15:37.576Z,8.46
2019-02-08T13:20:44.165Z,8.34
2019-02-08T13:25:49.839Z,8.40
2019-02-08T13:30:55.445Z,8.21
2019-02-08T13:36:01.047Z,8.30
2019-02-08T13:41:07.552Z,8.63
2019-02-08T13:46:13.086Z,8.69
2019-02-08T13:51:19.871Z,8.95
2019-02-08T13:56:27.700Z,8.34
2019-02-08T14:01:33.399Z,8.44
2019-02-08T14:06:39.384Z,8.31
2019-02-08T14:11:45.447Z,8.71
2019-02-08T14:16:51.115Z,8.27
2019-02-08T14:21:57.202Z,8.66
2019-02-08T14:27:08.472Z,8.18
2019-02-08T14:32:13.266Z,8.58
2019-02-08T14:37:19.337Z,8.51
2019-02-08T14:42:24.937Z,8.80
2019-02-08T14:47:30.540Z,8.19
2019-02-08T14:52:36.415Z,7.97
2019-02-08T14:57:42.324Z,7.79
2019-02-08T15:02:47.947Z,8.19
2019-02-08T15:07:53.706Z,8.34
2019-02-08T15:13:00.366Z,8.24
2019-02-08T15:18:07.332Z,7.84
2019-02-08T15:23:13.480Z,7.72
2019-02-08T15:28:19.246Z,7.59
2019-02-08T15:33:28.063Z,7.37
2019-02-08T15:38:33.781Z,7.40
2019-02-08T15:43:39.556Z,6.57
2019-02-08T15:48:45.341Z,6.83
2019-02-08T15:53:53.278Z,6.58
2019-02-08T15:58:59.159Z,6.40
2019-02-08T16:04:04.934Z,6.33
2019-02-08T16:09:13.711Z,6.18
2019-02-08T16:14:21.561Z,5.62
2019-02-08T16:19:29.732Z,5.83
2019-02-08T16:24:36.041Z,5.34
2019-02-08T16:29:41.913Z,5.15
2019-02-08T16:34:47.787Z,5.12
2019-02-08T16:39:54.029Z,5.25
2019-02-08T16:45:01.576Z,5.21
2019-02-08T16:50:09.322Z,5.43
2019-02-08T16:55:16.971Z,5.12
2019-02-08T17:00:27.475Z,5.05
2019-02-08T17:05:35.451Z,4.61
2019-02-08T17:10:41.348Z,4.83
2019-02-08T17:15:47.963Z,4.70
2019-02-08T17:20:53.877Z,4.54
2019-02-08T17:25:59.742Z,4.18
2019-02-08T17:31:06.798Z,4.32
2019-02-08T17:36:16.474Z,4.35
2019-02-08T17:41:23.665Z,4.04
2019-02-08T17:46:32.737Z,4.04
2019-02-08T17:51:38.960Z,4.09
2019-02-08T17:56:44.776Z,3.60
2019-02-08T18:01:50.595Z,3.60
2019-02-08T18:06:56.790Z,3.41
2019-02-08T18:12:06.268Z,3.69
2019-02-08T18:17:12.144Z,3.98
2019-02-08T18:22:17.896Z,3.77
2019-02-08T18:27:24.026Z,3.47
2019-02-08T18:32:30.996Z,3.56
2019-02-08T18:37:37.196Z,3.34
2019-02-08T18:42:43.570Z,3.72
2019-02-08T18:47:50.039Z,3.36
2019-02-08T18:52:56.999Z,3.37
2019-02-08T18:58:03.420Z,3.37
2019-02-08T19:03:09.769Z,3.38
2019-02-08T19:08:16.749Z,3.29
2019-02-08T19:13:23.238Z,3.17
2019-02-08T19:18:29.563Z,3.21
2019-02-08T19:23:40.502Z,3.16
2019-02-08T19:28:48.341Z,3.16
2019-02-08T19:33:57.372Z,3.06
2019-02-08T19:39:06.476Z,3.05
2019-02-08T19:44:13.163Z,3.10
2019-02-08T19:49:19.944Z,3.07
2019-02-08T19:54:26.851Z,2.94
2019-02-08T19:59:37.606Z,2.89
2019-02-08T20:04:45.791Z,2.84
2019-02-08T20:09:56.936Z,2.90
2019-02-08T20:15:06.297Z,2.83
2019-02-08T20:20:14.998Z,3.01
2019-02-08T20:25:26.652Z,2.78
2019-02-08T20:30:35.943Z,2.91
2019-02-08T20:35:43.166Z,2.92
2019-02-08T20:40:52.239Z,2.85
2019-02-08T20:46:08.557Z,3.00
2019-02-08T20:51:17.306Z,3.20
2019-02-08T20:56:23.442Z,2.91
2019-02-08T21:01:31.045Z,2.72
2019-02-08T21:06:40.953Z,2.66
2019-02-08T21:11:50.113Z,3.04
2019-02-08T21:17:02.061Z,3.39
2019-02-08T21:22:10.071Z,3.27
2019-02-08T21:27:15.859Z,3.57
2019-02-08T21:32:23.960Z,3.55
2019-02-08T21:37:30.139Z,3.51
2019-02-08T21:42:38.534Z,3.87
2019-02-08T21:47:46.323Z,4.16
2019-02-08T21:52:52.344Z,4.17
2019-02-08T21:58:01.161Z,4.28
2019-02-08T22:03:09.528Z,4.60
2019-02-08T22:08:15.657Z,4.61
2019-02-08T22:13:21.371Z,4.72
2019-02-08T22:18:28.765Z,4.87
2019-02-08T22:23:34.751Z,4.85
2019-02-08T22:28:40.682Z,4.96
2019-02-08T22:33:46.841Z,4.96
2019-02-08T22:38:55.252Z,4.92
2019-02-08T22:44:00.925Z,4.92
2019-02-08T22:49:08.565Z,5.26
2019-02-08T22:54:14.317Z,5.26
2019-02-08T22:59:22.226Z,5.17
2019-02-08T23:04:27.184Z,5.17
2019-02-08T23:09:32.713Z,5.15
2019-02-08T23:14:38.342Z,5.16
2019-02-08T23:19:44.488Z,5.34
2019-02-08T23:24:50.266Z,5.27
2019-02-08T23:29:57.389Z,5.29
2019-02-08T23:35:05.447Z,5.35
2019-02-08T23:40:11.715Z,5.40
2019-02-08T23:45:18.032Z,5.47
2019-02-08T23:51:35.847Z,5.48
2019-02-08T23:56:41.496Z,5.47
